Terminal Aerodrome Forecast
Issued by NWS

Home | Current Version | Previous Version | Text Only | Print | Product List | Glossary On
Versions: 1 2 3 4 5 6 7 8 9 10 11 12 13
000
FTUS43 KGRR 240139 AAA
TAFMKG
TAF AMD
KMKG 240139Z 2402/2424 17012G20KT 5SM -SHRA BR VCTS OVC035CB
     FM241000 20012G20KT 5SM -RA BR OVC020
     FM241400 21013G21KT 5SM BR OVC015=

USA.gov is the U.S. government's official web portal to all federal, state and local government web resources and services.